sensor_id;sensor_type;location;lat;lon;timestamp;P1;durP1;ratioP1;P2;durP2;ratioP2
69748;SDS011;57019;52.354;6.584;2022-09-19T00:01:32;6.07;;;0.90;;
69748;SDS011;57019;52.354;6.584;2022-09-19T00:04:04;7.37;;;1.10;;
69748;SDS011;57019;52.354;6.584;2022-09-19T00:06:32;5.97;;;0.90;;
69748;SDS011;57019;52.354;6.584;2022-09-19T00:09:03;5.18;;;0.90;;
69748;SDS011;57019;52.354;6.584;2022-09-19T00:11:30;9.77;;;1.05;;
69748;SDS011;57019;52.354;6.584;2022-09-19T00:13:56;6.50;;;1.03;;
69748;SDS011;57019;52.354;6.584;2022-09-19T00:16:24;6.63;;;1.20;;
69748;SDS011;57019;52.354;6.584;2022-09-19T00:18:55;6.25;;;1.00;;
69748;SDS011;57019;52.354;6.584;2022-09-19T00:21:23;5.30;;;0.93;;
69748;SDS011;57019;52.354;6.584;2022-09-19T00:23:50;7.28;;;0.90;;
69748;SDS011;57019;52.354;6.584;2022-09-19T00:26:36;5.07;;;1.00;;
69748;SDS011;57019;52.354;6.584;2022-09-19T00:29:04;4.57;;;0.85;;
69748;SDS011;57019;52.354;6.584;2022-09-19T00:31:30;4.72;;;1.00;;
69748;SDS011;57019;52.354;6.584;2022-09-19T00:33:56;6.03;;;1.00;;
69748;SDS011;57019;52.354;6.584;2022-09-19T00:36:21;6.13;;;0.77;;
69748;SDS011;57019;52.354;6.584;2022-09-19T00:38:47;6.20;;;0.93;;
69748;SDS011;57019;52.354;6.584;2022-09-19T00:41:14;6.22;;;0.95;;
69748;SDS011;57019;52.354;6.584;2022-09-19T00:43:42;5.30;;;0.95;;
69748;SDS011;57019;52.354;6.584;2022-09-19T00:46:08;6.33;;;1.10;;
69748;SDS011;57019;52.354;6.584;2022-09-19T00:48:33;6.03;;;0.90;;
69748;SDS011;57019;52.354;6.584;2022-09-19T00:50:59;6.03;;;0.75;;
69748;SDS011;57019;52.354;6.584;2022-09-19T00:53:26;5.30;;;0.90;;
69748;SDS011;57019;52.354;6.584;2022-09-19T00:55:53;5.13;;;0.90;;
69748;SDS011;57019;52.354;6.584;2022-09-19T01:00:56;5.13;;;1.00;;
69748;SDS011;57019;52.354;6.584;2022-09-19T01:03:22;7.65;;;1.10;;
69748;SDS011;57019;52.354;6.584;2022-09-19T01:16:51;5.78;;;1.00;;
69748;SDS011;57019;52.354;6.584;2022-09-19T01:22:20;6.20;;;0.90;;
69748;SDS011;57019;52.354;6.584;2022-09-19T01:30:52;5.55;;;0.88;;
69748;SDS011;57019;52.354;6.584;2022-09-19T01:34:25;3.80;;;0.80;;
69748;SDS011;57019;52.354;6.584;2022-09-19T01:37:05;6.70;;;0.90;;
69748;SDS011;57019;52.354;6.584;2022-09-19T01:39:35;4.75;;;0.82;;
69748;SDS011;57019;52.354;6.584;2022-09-19T01:42:02;4.50;;;0.80;;
69748;SDS011;57019;52.354;6.584;2022-09-19T01:44:29;7.50;;;1.20;;
69748;SDS011;57019;52.354;6.584;2022-09-19T01:52:37;4.18;;;0.90;;
69748;SDS011;57019;52.354;6.584;2022-09-19T01:55:11;6.38;;;0.93;;
69748;SDS011;57019;52.354;6.584;2022-09-19T02:01:05;6.15;;;1.00;;
69748;SDS011;57019;52.354;6.584;2022-09-19T02:03:55;6.07;;;1.00;;
69748;SDS011;57019;52.354;6.584;2022-09-19T02:11:47;5.83;;;1.00;;
69748;SDS011;57019;52.354;6.584;2022-09-19T02:14:13;5.20;;;0.90;;
69748;SDS011;57019;52.354;6.584;2022-09-19T02:16:59;6.57;;;1.00;;
69748;SDS011;57019;52.354;6.584;2022-09-19T02:20:02;4.28;;;0.85;;
69748;SDS011;57019;52.354;6.584;2022-09-19T02:22:30;4.30;;;0.90;;
69748;SDS011;57019;52.354;6.584;2022-09-19T02:24:58;5.23;;;0.90;;
69748;SDS011;57019;52.354;6.584;2022-09-19T02:27:32;6.50;;;0.90;;
69748;SDS011;57019;52.354;6.584;2022-09-19T02:30:03;5.90;;;1.05;;
69748;SDS011;57019;52.354;6.584;2022-09-19T02:32:31;4.20;;;0.80;;
69748;SDS011;57019;52.354;6.584;2022-09-19T02:34:57;7.27;;;1.07;;
69748;SDS011;57019;52.354;6.584;2022-09-19T02:41:01;4.50;;;1.10;;
69748;SDS011;57019;52.354;6.584;2022-09-19T02:43:33;5.82;;;0.90;;
69748;SDS011;57019;52.354;6.584;2022-09-19T02:46:38;4.85;;;0.80;;
69748;SDS011;57019;52.354;6.584;2022-09-19T02:49:11;4.00;;;0.63;;
69748;SDS011;57019;52.354;6.584;2022-09-19T02:51:46;4.88;;;1.15;;
69748;SDS011;57019;52.354;6.584;2022-09-19T02:54:21;4.82;;;1.00;;
69748;SDS011;57019;52.354;6.584;2022-09-19T02:56:51;5.15;;;0.93;;
69748;SDS011;57019;52.354;6.584;2022-09-19T02:59:23;3.45;;;0.70;;
69748;SDS011;57019;52.354;6.584;2022-09-19T03:02:00;4.70;;;0.90;;
69748;SDS011;57019;52.354;6.584;2022-09-19T03:04:31;5.22;;;0.70;;
69748;SDS011;57019;52.354;6.584;2022-09-19T03:07:22;5.25;;;0.77;;
69748;SDS011;57019;52.354;6.584;2022-09-19T03:10:14;4.10;;;0.80;;
69748;SDS011;57019;52.354;6.584;2022-09-19T03:12:45;6.35;;;1.30;;
69748;SDS011;57019;52.354;6.584;2022-09-19T03:15:16;5.23;;;0.93;;
69748;SDS011;57019;52.354;6.584;2022-09-19T03:17:46;4.90;;;0.80;;
69748;SDS011;57019;52.354;6.584;2022-09-19T03:20:15;4.80;;;0.90;;
69748;SDS011;57019;52.354;6.584;2022-09-19T03:22:42;4.97;;;0.90;;
69748;SDS011;57019;52.354;6.584;2022-09-19T03:25:08;4.43;;;0.85;;
69748;SDS011;57019;52.354;6.584;2022-09-19T03:27:35;4.43;;;0.73;;
69748;SDS011;57019;52.354;6.584;2022-09-19T03:30:05;4.30;;;0.80;;
69748;SDS011;57019;52.354;6.584;2022-09-19T03:32:33;4.80;;;0.82;;
69748;SDS011;57019;52.354;6.584;2022-09-19T03:34:59;3.63;;;0.70;;
69748;SDS011;57019;52.354;6.584;2022-09-19T03:37:24;4.47;;;0.70;;
69748;SDS011;57019;52.354;6.584;2022-09-19T03:39:50;4.28;;;0.88;;
69748;SDS011;57019;52.354;6.584;2022-09-19T03:42:15;6.50;;;1.20;;
69748;SDS011;57019;52.354;6.584;2022-09-19T03:44:43;4.90;;;0.73;;
69748;SDS011;57019;52.354;6.584;2022-09-19T03:47:08;5.00;;;0.80;;
69748;SDS011;57019;52.354;6.584;2022-09-19T03:49:34;4.73;;;0.90;;
69748;SDS011;57019;52.354;6.584;2022-09-19T03:52:00;5.50;;;0.88;;
69748;SDS011;57019;52.354;6.584;2022-09-19T03:54:25;4.73;;;0.90;;
69748;SDS011;57019;52.354;6.584;2022-09-19T03:56:51;4.20;;;0.80;;
69748;SDS011;57019;52.354;6.584;2022-09-19T03:59:16;5.60;;;0.90;;
69748;SDS011;57019;52.354;6.584;2022-09-19T04:01:42;6.05;;;0.90;;
69748;SDS011;57019;52.354;6.584;2022-09-19T04:04:07;6.20;;;0.80;;
69748;SDS011;57019;52.354;6.584;2022-09-19T04:06:32;5.00;;;0.90;;
69748;SDS011;57019;52.354;6.584;2022-09-19T04:08:58;5.97;;;0.90;;
69748;SDS011;57019;52.354;6.584;2022-09-19T04:11:25;4.60;;;0.80;;
69748;SDS011;57019;52.354;6.584;2022-09-19T04:13:51;5.97;;;0.80;;
69748;SDS011;57019;52.354;6.584;2022-09-19T04:16:17;5.13;;;0.90;;
69748;SDS011;57019;52.354;6.584;2022-09-19T04:18:43;6.15;;;0.88;;
69748;SDS011;57019;52.354;6.584;2022-09-19T04:21:12;5.63;;;0.87;;
69748;SDS011;57019;52.354;6.584;2022-09-19T04:23:38;4.78;;;0.82;;
69748;SDS011;57019;52.354;6.584;2022-09-19T04:26:04;6.13;;;0.60;;
69748;SDS011;57019;52.354;6.584;2022-09-19T04:28:30;5.43;;;0.90;;
69748;SDS011;57019;52.354;6.584;2022-09-19T04:30:55;4.07;;;0.80;;
69748;SDS011;57019;52.354;6.584;2022-09-19T04:33:21;5.13;;;1.00;;
69748;SDS011;57019;52.354;6.584;2022-09-19T04:35:47;6.13;;;0.97;;
69748;SDS011;57019;52.354;6.584;2022-09-19T04:38:14;5.93;;;0.95;;
69748;SDS011;57019;52.354;6.584;2022-09-19T04:40:46;4.03;;;0.80;;
69748;SDS011;57019;52.354;6.584;2022-09-19T04:43:14;4.60;;;0.77;;
69748;SDS011;57019;52.354;6.584;2022-09-19T04:45:41;5.15;;;0.70;;
69748;SDS011;57019;52.354;6.584;2022-09-19T04:48:09;4.20;;;0.98;;
69748;SDS011;57019;52.354;6.584;2022-09-19T04:50:35;6.70;;;1.30;;
69748;SDS011;57019;52.354;6.584;2022-09-19T04:53:01;6.18;;;0.80;;
69748;SDS011;57019;52.354;6.584;2022-09-19T04:55:27;4.45;;;0.77;;
69748;SDS011;57019;52.354;6.584;2022-09-19T04:57:56;4.95;;;0.90;;
69748;SDS011;57019;52.354;6.584;2022-09-19T05:00:23;5.47;;;0.90;;
69748;SDS011;57019;52.354;6.584;2022-09-19T05:03:05;3.13;;;0.57;;
69748;SDS011;57019;52.354;6.584;2022-09-19T05:05:37;5.30;;;1.00;;
69748;SDS011;57019;52.354;6.584;2022-09-19T05:08:09;6.90;;;0.80;;
69748;SDS011;57019;52.354;6.584;2022-09-19T05:10:36;4.53;;;0.90;;
69748;SDS011;57019;52.354;6.584;2022-09-19T05:13:02;5.53;;;1.00;;
69748;SDS011;57019;52.354;6.584;2022-09-19T05:15:27;6.30;;;0.97;;
69748;SDS011;57019;52.354;6.584;2022-09-19T05:17:52;6.35;;;0.80;;
69748;SDS011;57019;52.354;6.584;2022-09-19T05:20:19;5.33;;;0.90;;
69748;SDS011;57019;52.354;6.584;2022-09-19T05:22:45;9.55;;;1.13;;
69748;SDS011;57019;52.354;6.584;2022-09-19T05:25:10;4.03;;;0.87;;
69748;SDS011;57019;52.354;6.584;2022-09-19T05:27:36;5.32;;;0.73;;
69748;SDS011;57019;52.354;6.584;2022-09-19T05:30:02;3.73;;;0.70;;
69748;SDS011;57019;52.354;6.584;2022-09-19T05:32:28;7.00;;;1.63;;
69748;SDS011;57019;52.354;6.584;2022-09-19T05:34:54;5.47;;;0.90;;
69748;SDS011;57019;52.354;6.584;2022-09-19T05:37:21;4.65;;;0.80;;
69748;SDS011;57019;52.354;6.584;2022-09-19T05:39:47;5.70;;;1.00;;
69748;SDS011;57019;52.354;6.584;2022-09-19T05:42:13;3.43;;;0.60;;
69748;SDS011;57019;52.354;6.584;2022-09-19T05:44:38;4.68;;;0.88;;
69748;SDS011;57019;52.354;6.584;2022-09-19T05:47:04;8.50;;;1.00;;
69748;SDS011;57019;52.354;6.584;2022-09-19T05:49:29;4.20;;;0.77;;
69748;SDS011;57019;52.354;6.584;2022-09-19T05:51:55;6.40;;;1.00;;
69748;SDS011;57019;52.354;6.584;2022-09-19T05:54:21;5.40;;;0.93;;
69748;SDS011;57019;52.354;6.584;2022-09-19T05:56:47;6.70;;;1.00;;
69748;SDS011;57019;52.354;6.584;2022-09-19T05:59:15;5.40;;;0.80;;
69748;SDS011;57019;52.354;6.584;2022-09-19T06:01:40;5.13;;;0.80;;
69748;SDS011;57019;52.354;6.584;2022-09-19T06:04:06;5.73;;;0.80;;
69748;SDS011;57019;52.354;6.584;2022-09-19T06:06:33;5.82;;;1.05;;
69748;SDS011;57019;52.354;6.584;2022-09-19T06:09:00;6.95;;;0.80;;
69748;SDS011;57019;52.354;6.584;2022-09-19T06:11:27;5.93;;;1.00;;
69748;SDS011;57019;52.354;6.584;2022-09-19T06:13:53;6.78;;;1.00;;
69748;SDS011;57019;52.354;6.584;2022-09-19T06:16:37;6.82;;;0.90;;
69748;SDS011;57019;52.354;6.584;2022-09-19T06:19:02;6.40;;;1.00;;
69748;SDS011;57019;52.354;6.584;2022-09-19T06:21:30;8.97;;;1.20;;
69748;SDS011;57019;52.354;6.584;2022-09-19T06:23:56;9.18;;;1.40;;
69748;SDS011;57019;52.354;6.584;2022-09-19T06:26:22;12.57;;;1.40;;
69748;SDS011;57019;52.354;6.584;2022-09-19T06:28:48;10.90;;;1.92;;
69748;SDS011;57019;52.354;6.584;2022-09-19T06:31:13;11.70;;;2.17;;
69748;SDS011;57019;52.354;6.584;2022-09-19T06:33:40;10.90;;;1.90;;
69748;SDS011;57019;52.354;6.584;2022-09-19T06:36:06;9.52;;;1.60;;
69748;SDS011;57019;52.354;6.584;2022-09-19T06:38:31;10.57;;;1.80;;
69748;SDS011;57019;52.354;6.584;2022-09-19T06:40:57;15.48;;;2.15;;
69748;SDS011;57019;52.354;6.584;2022-09-19T06:43:23;11.07;;;1.80;;
69748;SDS011;57019;52.354;6.584;2022-09-19T06:45:51;10.10;;;1.60;;
69748;SDS011;57019;52.354;6.584;2022-09-19T06:48:17;8.77;;;1.80;;
69748;SDS011;57019;52.354;6.584;2022-09-19T06:50:46;11.03;;;1.90;;
69748;SDS011;57019;52.354;6.584;2022-09-19T06:53:12;14.18;;;1.85;;
69748;SDS011;57019;52.354;6.584;2022-09-19T06:55:38;9.88;;;1.70;;
69748;SDS011;57019;52.354;6.584;2022-09-19T06:58:04;14.00;;;1.80;;
69748;SDS011;57019;52.354;6.584;2022-09-19T07:00:31;10.77;;;1.83;;
69748;SDS011;57019;52.354;6.584;2022-09-19T07:03:01;9.45;;;1.70;;
69748;SDS011;57019;52.354;6.584;2022-09-19T07:05:33;9.77;;;1.73;;
69748;SDS011;57019;52.354;6.584;2022-09-19T07:08:00;8.47;;;1.80;;
69748;SDS011;57019;52.354;6.584;2022-09-19T07:10:26;11.95;;;2.33;;
69748;SDS011;57019;52.354;6.584;2022-09-19T07:12:52;10.90;;;1.70;;
69748;SDS011;57019;52.354;6.584;2022-09-19T07:15:20;9.43;;;1.60;;
69748;SDS011;57019;52.354;6.584;2022-09-19T07:17:46;11.07;;;1.67;;
69748;SDS011;57019;52.354;6.584;2022-09-19T07:20:11;9.48;;;1.67;;
69748;SDS011;57019;52.354;6.584;2022-09-19T07:22:37;8.53;;;1.80;;
69748;SDS011;57019;52.354;6.584;2022-09-19T07:25:02;10.30;;;1.50;;
69748;SDS011;57019;52.354;6.584;2022-09-19T07:27:28;9.77;;;1.73;;
69748;SDS011;57019;52.354;6.584;2022-09-19T07:29:53;10.88;;;1.95;;
69748;SDS011;57019;52.354;6.584;2022-09-19T07:32:19;12.10;;;1.53;;
69748;SDS011;57019;52.354;6.584;2022-09-19T07:34:44;12.13;;;2.13;;
69748;SDS011;57019;52.354;6.584;2022-09-19T07:37:10;8.60;;;1.55;;
69748;SDS011;57019;52.354;6.584;2022-09-19T07:39:36;9.05;;;1.50;;
69748;SDS011;57019;52.354;6.584;2022-09-19T07:42:02;8.13;;;1.70;;
69748;SDS011;57019;52.354;6.584;2022-09-19T07:44:27;8.20;;;1.50;;
69748;SDS011;57019;52.354;6.584;2022-09-19T07:46:53;7.87;;;1.37;;
69748;SDS011;57019;52.354;6.584;2022-09-19T07:49:37;8.93;;;1.50;;
69748;SDS011;57019;52.354;6.584;2022-09-19T07:52:02;8.20;;;1.77;;
69748;SDS011;57019;52.354;6.584;2022-09-19T07:54:28;7.70;;;1.47;;
69748;SDS011;57019;52.354;6.584;2022-09-19T07:56:53;7.68;;;1.50;;
69748;SDS011;57019;52.354;6.584;2022-09-19T07:59:19;7.30;;;1.77;;
69748;SDS011;57019;52.354;6.584;2022-09-19T08:01:44;7.07;;;1.40;;
69748;SDS011;57019;52.354;6.584;2022-09-19T08:04:09;10.73;;;1.63;;
69748;SDS011;57019;52.354;6.584;2022-09-19T08:06:35;9.00;;;1.60;;
69748;SDS011;57019;52.354;6.584;2022-09-19T08:09:00;9.80;;;1.50;;
69748;SDS011;57019;52.354;6.584;2022-09-19T08:11:25;7.27;;;1.83;;
69748;SDS011;57019;52.354;6.584;2022-09-19T08:13:51;6.40;;;1.27;;
69748;SDS011;57019;52.354;6.584;2022-09-19T08:16:16;7.03;;;1.48;;
69748;SDS011;57019;52.354;6.584;2022-09-19T08:18:42;11.10;;;1.90;;
69748;SDS011;57019;52.354;6.584;2022-09-19T08:21:07;6.87;;;1.30;;
69748;SDS011;57019;52.354;6.584;2022-09-19T08:23:33;7.68;;;1.30;;
69748;SDS011;57019;52.354;6.584;2022-09-19T08:25:58;6.93;;;1.20;;
69748;SDS011;57019;52.354;6.584;2022-09-19T08:28:26;6.75;;;1.40;;
69748;SDS011;57019;52.354;6.584;2022-09-19T08:30:58;7.70;;;1.17;;
69748;SDS011;57019;52.354;6.584;2022-09-19T08:33:24;7.75;;;1.15;;
69748;SDS011;57019;52.354;6.584;2022-09-19T08:35:50;8.13;;;1.30;;
69748;SDS011;57019;52.354;6.584;2022-09-19T08:38:17;6.72;;;1.27;;
69748;SDS011;57019;52.354;6.584;2022-09-19T08:46:53;7.82;;;1.33;;
69748;SDS011;57019;52.354;6.584;2022-09-19T08:49:29;7.93;;;1.40;;
69748;SDS011;57019;52.354;6.584;2022-09-19T08:52:04;5.97;;;1.27;;
69748;SDS011;57019;52.354;6.584;2022-09-19T08:54:34;4.90;;;0.90;;
69748;SDS011;57019;52.354;6.584;2022-09-19T08:57:05;6.68;;;1.10;;
69748;SDS011;57019;52.354;6.584;2022-09-19T08:59:41;7.05;;;1.20;;
69748;SDS011;57019;52.354;6.584;2022-09-19T09:02:52;7.28;;;1.55;;
69748;SDS011;57019;52.354;6.584;2022-09-19T09:05:06;7.07;;;1.13;;
69748;SDS011;57019;52.354;6.584;2022-09-19T09:10:17;6.55;;;1.15;;
69748;SDS011;57019;52.354;6.584;2022-09-19T09:15:44;5.68;;;0.88;;
69748;SDS011;57019;52.354;6.584;2022-09-19T09:24:21;5.97;;;1.08;;
69748;SDS011;57019;52.354;6.584;2022-09-19T09:26:52;6.40;;;1.00;;
69748;SDS011;57019;52.354;6.584;2022-09-19T09:29:32;8.90;;;1.45;;
69748;SDS011;57019;52.354;6.584;2022-09-19T09:34:40;7.83;;;1.50;;
69748;SDS011;57019;52.354;6.584;2022-09-19T09:37:14;6.03;;;1.10;;
69748;SDS011;57019;52.354;6.584;2022-09-19T09:39:54;6.90;;;1.30;;
69748;SDS011;57019;52.354;6.584;2022-09-19T09:42:28;5.50;;;1.00;;
69748;SDS011;57019;52.354;6.584;2022-09-19T09:45:16;5.05;;;1.00;;
69748;SDS011;57019;52.354;6.584;2022-09-19T09:53:00;4.75;;;0.90;;
69748;SDS011;57019;52.354;6.584;2022-09-19T09:58:24;5.05;;;1.10;;
69748;SDS011;57019;52.354;6.584;2022-09-19T10:07:50;5.65;;;1.00;;
69748;SDS011;57019;52.354;6.584;2022-09-19T10:10:02;6.78;;;1.02;;
69748;SDS011;57019;52.354;6.584;2022-09-19T10:12:38;5.10;;;1.00;;
69748;SDS011;57019;52.354;6.584;2022-09-19T10:15:12;6.47;;;0.90;;
69748;SDS011;57019;52.354;6.584;2022-09-19T10:17:43;5.30;;;1.00;;
69748;SDS011;57019;52.354;6.584;2022-09-19T10:20:17;6.28;;;1.00;;
69748;SDS011;57019;52.354;6.584;2022-09-19T10:22:45;7.03;;;1.05;;
69748;SDS011;57019;52.354;6.584;2022-09-19T10:25:12;5.97;;;1.00;;
69748;SDS011;57019;52.354;6.584;2022-09-19T10:27:45;5.55;;;1.10;;
69748;SDS011;57019;52.354;6.584;2022-09-19T10:30:15;5.43;;;0.80;;
69748;SDS011;57019;52.354;6.584;2022-09-19T10:32:44;6.75;;;1.17;;
69748;SDS011;57019;52.354;6.584;2022-09-19T10:35:25;6.33;;;1.20;;
69748;SDS011;57019;52.354;6.584;2022-09-19T10:37:59;5.55;;;1.10;;
69748;SDS011;57019;52.354;6.584;2022-09-19T10:40:24;4.82;;;0.90;;
69748;SDS011;57019;52.354;6.584;2022-09-19T10:42:51;6.00;;;0.93;;
69748;SDS011;57019;52.354;6.584;2022-09-19T10:45:29;6.63;;;0.90;;
69748;SDS011;57019;52.354;6.584;2022-09-19T10:48:21;5.53;;;0.97;;
69748;SDS011;57019;52.354;6.584;2022-09-19T10:50:51;6.03;;;1.00;;
69748;SDS011;57019;52.354;6.584;2022-09-19T10:53:18;5.13;;;0.90;;
69748;SDS011;57019;52.354;6.584;2022-09-19T10:55:47;6.03;;;1.00;;
69748;SDS011;57019;52.354;6.584;2022-09-19T10:58:18;4.55;;;0.90;;
69748;SDS011;57019;52.354;6.584;2022-09-19T11:00:55;4.87;;;0.90;;
69748;SDS011;57019;52.354;6.584;2022-09-19T11:06:28;6.93;;;1.00;;
69748;SDS011;57019;52.354;6.584;2022-09-19T11:08:47;5.40;;;0.88;;
69748;SDS011;57019;52.354;6.584;2022-09-19T11:28:02;5.13;;;0.90;;
69748;SDS011;57019;52.354;6.584;2022-09-19T11:30:28;5.65;;;1.00;;
69748;SDS011;57019;52.354;6.584;2022-09-19T11:47:00;4.33;;;0.87;;
69748;SDS011;57019;52.354;6.584;2022-09-19T11:58:37;3.42;;;0.90;;
69748;SDS011;57019;52.354;6.584;2022-09-19T12:07:07;6.25;;;1.08;;
69748;SDS011;57019;52.354;6.584;2022-09-19T12:09:36;5.43;;;1.00;;
69748;SDS011;57019;52.354;6.584;2022-09-19T12:12:16;4.78;;;0.88;;
69748;SDS011;57019;52.354;6.584;2022-09-19T12:14:46;8.10;;;1.00;;
69748;SDS011;57019;52.354;6.584;2022-09-19T12:17:17;7.80;;;1.00;;
69748;SDS011;57019;52.354;6.584;2022-09-19T12:19:56;5.45;;;1.13;;
69748;SDS011;57019;52.354;6.584;2022-09-19T12:22:32;4.45;;;0.95;;
69748;SDS011;57019;52.354;6.584;2022-09-19T12:25:04;8.13;;;0.80;;
69748;SDS011;57019;52.354;6.584;2022-09-19T12:27:46;6.77;;;1.00;;
69748;SDS011;57019;52.354;6.584;2022-09-19T12:30:17;4.93;;;0.80;;
69748;SDS011;57019;52.354;6.584;2022-09-19T12:38:25;4.97;;;1.10;;
69748;SDS011;57019;52.354;6.584;2022-09-19T12:44:09;6.18;;;0.98;;
69748;SDS011;57019;52.354;6.584;2022-09-19T12:46:44;3.80;;;0.80;;
69748;SDS011;57019;52.354;6.584;2022-09-19T13:00:18;4.60;;;0.90;;
69748;SDS011;57019;52.354;6.584;2022-09-19T13:02:49;8.32;;;1.00;;
69748;SDS011;57019;52.354;6.584;2022-09-19T13:05:22;4.15;;;0.80;;
69748;SDS011;57019;52.354;6.584;2022-09-19T13:10:37;4.28;;;0.80;;
69748;SDS011;57019;52.354;6.584;2022-09-19T13:13:19;6.22;;;0.88;;
69748;SDS011;57019;52.354;6.584;2022-09-19T13:16:05;4.78;;;1.13;;
69748;SDS011;57019;52.354;6.584;2022-09-19T13:18:42;7.25;;;1.05;;
69748;SDS011;57019;52.354;6.584;2022-09-19T13:21:44;5.30;;;0.93;;
69748;SDS011;57019;52.354;6.584;2022-09-19T13:27:45;4.75;;;0.90;;
69748;SDS011;57019;52.354;6.584;2022-09-19T13:38:50;4.45;;;0.70;;
69748;SDS011;57019;52.354;6.584;2022-09-19T13:41:21;4.50;;;0.80;;
69748;SDS011;57019;52.354;6.584;2022-09-19T13:46:26;5.47;;;0.90;;
69748;SDS011;57019;52.354;6.584;2022-09-19T13:51:36;5.38;;;0.98;;
69748;SDS011;57019;52.354;6.584;2022-09-19T13:57:09;3.63;;;0.80;;
69748;SDS011;57019;52.354;6.584;2022-09-19T13:59:37;3.83;;;0.70;;
69748;SDS011;57019;52.354;6.584;2022-09-19T14:04:41;5.47;;;0.88;;
69748;SDS011;57019;52.354;6.584;2022-09-19T14:07:29;3.88;;;1.00;;
69748;SDS011;57019;52.354;6.584;2022-09-19T14:09:59;4.17;;;0.80;;
69748;SDS011;57019;52.354;6.584;2022-09-19T14:14:59;3.03;;;0.80;;
69748;SDS011;57019;52.354;6.584;2022-09-19T14:17:26;6.23;;;0.90;;
69748;SDS011;57019;52.354;6.584;2022-09-19T14:19:56;4.07;;;0.80;;
69748;SDS011;57019;52.354;6.584;2022-09-19T14:36:36;5.03;;;0.80;;
69748;SDS011;57019;52.354;6.584;2022-09-19T14:47:41;5.25;;;1.00;;
69748;SDS011;57019;52.354;6.584;2022-09-19T14:50:15;4.60;;;0.80;;
69748;SDS011;57019;52.354;6.584;2022-09-19T14:52:47;5.07;;;0.80;;
69748;SDS011;57019;52.354;6.584;2022-09-19T14:55:23;7.50;;;1.00;;
69748;SDS011;57019;52.354;6.584;2022-09-19T14:57:52;8.55;;;0.80;;
69748;SDS011;57019;52.354;6.584;2022-09-19T15:00:23;4.70;;;0.95;;
69748;SDS011;57019;52.354;6.584;2022-09-19T15:02:53;3.95;;;0.90;;
69748;SDS011;57019;52.354;6.584;2022-09-19T15:05:27;4.70;;;0.90;;
69748;SDS011;57019;52.354;6.584;2022-09-19T15:07:54;4.47;;;0.70;;
69748;SDS011;57019;52.354;6.584;2022-09-19T15:12:55;13.35;;;1.02;;
69748;SDS011;57019;52.354;6.584;2022-09-19T15:15:22;5.72;;;0.80;;
69748;SDS011;57019;52.354;6.584;2022-09-19T15:17:52;5.77;;;0.80;;
69748;SDS011;57019;52.354;6.584;2022-09-19T15:20:18;11.63;;;1.02;;
69748;SDS011;57019;52.354;6.584;2022-09-19T15:22:51;3.93;;;0.70;;
69748;SDS011;57019;52.354;6.584;2022-09-19T15:25:33;4.78;;;0.80;;
69748;SDS011;57019;52.354;6.584;2022-09-19T15:28:01;7.22;;;0.88;;
69748;SDS011;57019;52.354;6.584;2022-09-19T15:30:32;5.80;;;0.90;;
69748;SDS011;57019;52.354;6.584;2022-09-19T15:33:00;4.65;;;1.00;;
69748;SDS011;57019;52.354;6.584;2022-09-19T15:35:31;3.67;;;0.70;;
69748;SDS011;57019;52.354;6.584;2022-09-19T15:38:05;5.15;;;1.00;;
69748;SDS011;57019;52.354;6.584;2022-09-19T15:40:37;6.32;;;0.90;;
69748;SDS011;57019;52.354;6.584;2022-09-19T15:43:07;4.72;;;1.05;;
69748;SDS011;57019;52.354;6.584;2022-09-19T15:45:40;5.25;;;0.98;;
69748;SDS011;57019;52.354;6.584;2022-09-19T15:48:16;3.40;;;0.80;;
69748;SDS011;57019;52.354;6.584;2022-09-19T15:50:45;5.57;;;0.82;;
69748;SDS011;57019;52.354;6.584;2022-09-19T15:53:25;4.88;;;0.73;;
69748;SDS011;57019;52.354;6.584;2022-09-19T15:56:03;3.53;;;0.90;;
69748;SDS011;57019;52.354;6.584;2022-09-19T15:58:39;4.22;;;0.80;;
69748;SDS011;57019;52.354;6.584;2022-09-19T16:01:11;7.47;;;1.00;;
69748;SDS011;57019;52.354;6.584;2022-09-19T16:03:49;4.00;;;0.90;;
69748;SDS011;57019;52.354;6.584;2022-09-19T16:06:22;5.20;;;0.95;;
69748;SDS011;57019;52.354;6.584;2022-09-19T16:09:30;5.68;;;0.80;;
69748;SDS011;57019;52.354;6.584;2022-09-19T16:11:57;6.82;;;0.98;;
69748;SDS011;57019;52.354;6.584;2022-09-19T16:14:35;4.67;;;0.80;;
69748;SDS011;57019;52.354;6.584;2022-09-19T16:17:10;7.00;;;0.90;;
69748;SDS011;57019;52.354;6.584;2022-09-19T16:19:42;9.65;;;1.08;;
69748;SDS011;57019;52.354;6.584;2022-09-19T16:22:12;5.47;;;1.20;;
69748;SDS011;57019;52.354;6.584;2022-09-19T16:24:47;4.82;;;0.93;;
69748;SDS011;57019;52.354;6.584;2022-09-19T16:27:22;6.50;;;1.23;;
69748;SDS011;57019;52.354;6.584;2022-09-19T16:29:50;6.00;;;1.10;;
69748;SDS011;57019;52.354;6.584;2022-09-19T16:32:18;5.80;;;1.17;;
69748;SDS011;57019;52.354;6.584;2022-09-19T16:34:51;6.68;;;1.10;;
69748;SDS011;57019;52.354;6.584;2022-09-19T16:37:38;3.90;;;0.85;;
69748;SDS011;57019;52.354;6.584;2022-09-19T16:40:21;5.20;;;0.70;;
69748;SDS011;57019;52.354;6.584;2022-09-19T16:42:51;5.25;;;1.00;;
69748;SDS011;57019;52.354;6.584;2022-09-19T16:47:47;7.73;;;1.00;;
69748;SDS011;57019;52.354;6.584;2022-09-19T16:50:14;4.60;;;0.80;;
69748;SDS011;57019;52.354;6.584;2022-09-19T16:52:47;5.47;;;0.85;;
69748;SDS011;57019;52.354;6.584;2022-09-19T16:57:48;6.88;;;0.98;;
69748;SDS011;57019;52.354;6.584;2022-09-19T17:00:15;4.40;;;0.83;;
69748;SDS011;57019;52.354;6.584;2022-09-19T17:02:40;9.65;;;1.00;;
69748;SDS011;57019;52.354;6.584;2022-09-19T17:05:10;4.80;;;0.80;;
69748;SDS011;57019;52.354;6.584;2022-09-19T17:07:39;3.40;;;0.90;;
69748;SDS011;57019;52.354;6.584;2022-09-19T17:10:05;5.33;;;0.90;;
69748;SDS011;57019;52.354;6.584;2022-09-19T17:12:31;4.93;;;1.00;;
69748;SDS011;57019;52.354;6.584;2022-09-19T17:14:56;6.70;;;1.00;;
69748;SDS011;57019;52.354;6.584;2022-09-19T17:17:21;4.93;;;1.00;;
69748;SDS011;57019;52.354;6.584;2022-09-19T17:19:47;6.03;;;0.90;;
69748;SDS011;57019;52.354;6.584;2022-09-19T17:22:13;4.07;;;1.00;;
69748;SDS011;57019;52.354;6.584;2022-09-19T17:24:42;3.67;;;0.80;;
69748;SDS011;57019;52.354;6.584;2022-09-19T17:27:08;4.43;;;0.90;;
69748;SDS011;57019;52.354;6.584;2022-09-19T17:29:33;5.90;;;1.43;;
69748;SDS011;57019;52.354;6.584;2022-09-19T17:31:58;5.38;;;0.90;;
69748;SDS011;57019;52.354;6.584;2022-09-19T17:34:24;4.43;;;0.90;;
69748;SDS011;57019;52.354;6.584;2022-09-19T17:36:50;6.47;;;1.37;;
69748;SDS011;57019;52.354;6.584;2022-09-19T17:39:15;4.37;;;0.93;;
69748;SDS011;57019;52.354;6.584;2022-09-19T17:41:41;6.15;;;1.00;;
69748;SDS011;57019;52.354;6.584;2022-09-19T17:44:07;6.73;;;1.00;;
69748;SDS011;57019;52.354;6.584;2022-09-19T17:46:34;5.13;;;1.05;;
69748;SDS011;57019;52.354;6.584;2022-09-19T17:48:59;6.50;;;1.10;;
69748;SDS011;57019;52.354;6.584;2022-09-19T17:51:25;5.77;;;1.20;;
69748;SDS011;57019;52.354;6.584;2022-09-19T17:53:50;4.43;;;0.90;;
69748;SDS011;57019;52.354;6.584;2022-09-19T17:56:19;4.17;;;0.97;;
69748;SDS011;57019;52.354;6.584;2022-09-19T17:58:48;5.05;;;0.90;;
69748;SDS011;57019;52.354;6.584;2022-09-19T18:01:20;4.25;;;0.90;;
69748;SDS011;57019;52.354;6.584;2022-09-19T18:04:06;5.88;;;1.00;;
69748;SDS011;57019;52.354;6.584;2022-09-19T18:06:32;6.73;;;1.13;;
69748;SDS011;57019;52.354;6.584;2022-09-19T18:08:59;5.10;;;0.95;;
69748;SDS011;57019;52.354;6.584;2022-09-19T18:11:25;5.07;;;0.98;;
69748;SDS011;57019;52.354;6.584;2022-09-19T18:13:52;6.53;;;1.25;;
69748;SDS011;57019;52.354;6.584;2022-09-19T18:16:20;4.65;;;0.90;;
69748;SDS011;57019;52.354;6.584;2022-09-19T18:18:46;5.37;;;1.00;;
69748;SDS011;57019;52.354;6.584;2022-09-19T18:21:12;5.63;;;1.00;;
69748;SDS011;57019;52.354;6.584;2022-09-19T18:23:38;6.10;;;0.90;;
69748;SDS011;57019;52.354;6.584;2022-09-19T18:26:06;5.88;;;0.98;;
69748;SDS011;57019;52.354;6.584;2022-09-19T18:28:32;4.30;;;0.82;;